Time;durP1;ratioP1;P1;durP2;ratioP2;P2;SDS_P1;SDS_P2;PMS_P1;PMS_P2;Temp;Humidity;BMP_temperature;BMP_pressure;BME280_temperature;BME280_humidity;BME280_pressure;Samples;Min_cycle;Max_cycle;Signal;HPM_P1;HPM_P2
2022/02/02 00:00:23;;;;;;;0.10;0.10;;;;;;;11.21;59.43;101712.50;5016974;28;20018;-89
2022/02/02 00:02:52;;;;;;;0.03;0.03;;;;;;;11.34;59.17;101692.06;5015603;28;20488;-84
2022/02/02 00:05:26;;;;;;;0.10;0.10;;;;;;;11.34;59.21;101705.34;5017000;28;20030;-84
2022/02/02 00:08:01;;;;;;;0.30;0.30;;;;;;;11.35;58.80;101707.06;5015188;28;20040;-84
2022/02/02 00:13:14;;;;;;;14.70;2.70;;;;;;;11.28;58.56;101700.09;5064464;27;20822;-83
2022/02/02 00:15:53;;;;;;;0.10;0.10;;;;;;;11.36;58.47;101711.50;5064854;28;20025;-84
2022/02/02 00:18:53;;;;;;;0.30;0.30;;;;;;;11.24;58.74;101725.75;5053891;28;20037;-84
2022/02/02 00:21:13;;;;;;;1.25;1.25;;;;;;;11.25;59.04;101701.00;5042590;28;20143;-86
2022/02/02 00:23:44;;;;;;;0.50;0.50;;;;;;;11.22;58.96;101708.97;5041994;28;20141;-84
2022/02/02 00:26:16;;;;;;;0.00;0.00;;;;;;;11.26;58.72;101707.19;5049670;28;20033;-85
2022/02/02 00:28:47;;;;;;;0.90;0.90;;;;;;;11.13;59.26;101699.31;5044466;28;20025;-83
2022/02/02 00:31:20;;;;;;;0.00;0.00;;;;;;;11.01;59.67;101717.97;5048541;28;20030;-84
2022/02/02 00:33:53;;;;;;;1.83;1.77;;;;;;;11.06;59.01;101715.31;5034469;28;20023;-83
2022/02/02 00:36:23;;;;;;;0.08;0.08;;;;;;;11.09;59.09;101715.28;5047240;28;20021;-84
2022/02/02 00:38:52;;;;;;;0.08;0.08;;;;;;;11.09;59.33;101709.97;5048270;28;20021;-89
2022/02/02 00:41:18;;;;;;;3.83;2.50;;;;;;;10.99;59.32;101706.50;5049687;28;20048;-83
2022/02/02 00:43:47;;;;;;;0.55;0.55;;;;;;;10.96;59.48;101723.31;5046474;28;20041;-83
2022/02/02 00:46:15;;;;;;;0.10;0.10;;;;;;;10.96;59.87;101710.06;5038024;28;20037;-84
2022/02/02 00:48:47;;;;;;;0.13;0.13;;;;;;;10.96;59.73;101714.50;5034969;28;20040;-84
2022/02/02 00:51:19;;;;;;;;;;;;;;;11.03;59.62;101728.56;5036674;28;20385;-84
2022/02/02 00:53:45;;;;;;;0.22;0.22;;;;;;;10.83;60.10;101719.03;5029662;28;19921;-83
2022/02/02 00:56:11;;;;;;;0.43;0.22;;;;;;;10.73;60.35;101733.19;5045734;28;20439;-84
2022/02/02 00:58:38;;;;;;;0.10;0.10;;;;;;;10.83;59.93;101724.31;5048013;28;20396;-84
2022/02/02 01:01:04;;;;;;;0.10;0.10;;;;;;;10.72;60.17;101719.09;5048732;28;20029;-84
2022/02/02 01:03:31;;;;;;;1.50;1.50;;;;;;;10.80;60.06;101740.22;5043289;28;20047;-84
2022/02/02 01:05:57;;;;;;;0.00;0.00;;;;;;;10.66;60.55;101748.28;5048907;28;20026;-83
2022/02/02 01:08:42;;;;;;;0.10;0.10;;;;;;;10.77;60.30;101735.84;5047752;28;20393;-85
2022/02/02 01:29:31;;;;;;;0.40;0.40;;;;;;;10.83;60.12;101742.88;5049403;28;20095;-83
2022/02/02 01:31:57;;;;;;;0.32;0.32;;;;;;;10.89;59.60;101729.59;5046672;28;20032;-84
2022/02/02 01:34:24;;;;;;;0.32;0.32;;;;;;;10.78;60.13;101736.69;5063693;28;20028;-84
2022/02/02 01:36:50;;;;;;;0.00;0.00;;;;;;;10.90;59.73;101738.41;5068589;28;20396;-83
2022/02/02 01:39:18;;;;;;;0.10;0.10;;;;;;;10.67;60.56;101742.97;5068197;28;20091;-83
2022/02/02 01:41:45;;;;;;;0.10;0.10;;;;;;;10.78;59.85;101731.41;5064078;28;20048;-84
2022/02/02 01:44:25;;;;;;;0.10;0.10;;;;;;;10.75;60.30;101736.72;5062794;28;20027;-84
2022/02/02 01:46:53;;;;;;;0.43;0.43;;;;;;;10.74;59.94;101761.47;5068601;28;20025;-84
2022/02/02 01:55:18;;;;;;;0.20;0.20;;;;;;;10.77;60.35;101778.25;5073554;27;20409;-85
2022/02/02 02:00:28;;;;;;;0.40;0.40;;;;;;;10.64;60.74;101793.34;5083466;27;20402;-84
2022/02/02 02:02:54;;;;;;;0.17;0.17;;;;;;;10.82;60.17;101797.66;5074534;28;20041;-84
2022/02/02 02:05:20;;;;;;;0.10;0.10;;;;;;;10.80;60.37;101787.94;5075751;28;20037;-84
2022/02/02 02:07:47;;;;;;;0.08;0.08;;;;;;;10.93;60.25;101791.41;5067013;28;20021;-83
2022/02/02 02:10:14;;;;;;;0.10;0.10;;;;;;;10.97;59.61;101772.81;5058548;28;20037;-85
2022/02/02 02:12:50;;;;;;;1.33;1.23;;;;;;;10.88;60.18;101794.09;5056625;28;20025;-84
2022/02/02 02:15:18;;;;;;;0.10;0.10;;;;;;;10.80;60.61;101799.44;5054812;28;20025;-84
2022/02/02 02:17:44;;;;;;;0.10;0.10;;;;;;;10.92;59.96;101785.22;5053790;28;20074;-84
2022/02/02 02:20:11;;;;;;;20.27;1.25;;;;;;;10.91;60.06;101794.06;5051507;28;20068;-85
2022/02/02 02:22:39;;;;;;;0.57;0.57;;;;;;;10.96;60.13;101772.84;5058826;28;20471;-84
2022/02/02 02:25:06;;;;;;;0.20;0.20;;;;;;;10.93;60.10;101778.13;5057163;28;20029;-84
2022/02/02 02:27:32;;;;;;;0.10;0.10;;;;;;;10.96;59.93;101773.69;5055702;28;20116;-85
2022/02/02 02:30:48;;;;;;;0.10;0.10;;;;;;;10.90;60.43;101791.44;5053512;28;20026;-84
2022/02/02 02:35:56;;;;;;;0.00;0.00;;;;;;;10.98;59.91;101761.31;5076048;28;20523;-88
2022/02/02 02:57:45;;;;;;;0.05;0.05;;;;;;;11.06;59.82;101769.22;5032997;28;20438;-85
2022/02/02 03:30:44;;;;;;;0.00;0.00;;;;;;;11.07;60.44;101770.13;5065772;28;20075;-85
2022/02/02 03:50:18;;;;;;;0.47;0.47;;;;;;;11.11;59.88;101771.84;5068920;28;20037;-84
2022/02/02 03:55:39;;;;;;;0.40;0.40;;;;;;;11.17;59.92;101785.06;5066661;28;20439;-86
2022/02/02 04:06:19;;;;;;;0.25;0.25;;;;;;;11.16;59.66;101786.84;5170611;27;20407;-86
2022/02/02 04:08:45;;;;;;;0.10;0.10;;;;;;;11.08;60.13;101793.97;5149686;27;20466;-86
2022/02/02 04:11:17;;;;;;;0.00;0.00;;;;;;;11.16;60.04;101799.22;5133020;27;20501;-85
2022/02/02 04:52:59;;;;;;;0.00;0.00;;;;;;;10.97;60.63;101817.88;5043947;28;20103;-85
2022/02/02 04:58:10;;;;;;;0.00;0.00;;;;;;;10.99;60.77;101841.75;5041756;28;20030;-89
2022/02/02 05:03:43;;;;;;;0.00;0.00;;;;;;;11.00;60.87;101823.19;5069547;27;20431;-85
2022/02/02 05:06:30;;;;;;;0.08;0.08;;;;;;;10.96;61.02;101840.00;5062224;28;20424;-87
2022/02/02 05:09:06;;;;;;;0.10;0.10;;;;;;;10.93;61.18;101840.03;5047930;28;20036;-87
2022/02/02 05:12:04;;;;;;;2.85;2.65;;;;;;;10.90;61.15;101837.38;5061599;28;20029;-86
2022/02/02 05:17:19;;;;;;;0.00;0.00;;;;;;;10.92;61.17;101834.72;5059769;28;20116;-87
2022/02/02 05:23:39;;;;;;;1.45;1.00;;;;;;;11.02;60.80;101836.44;5035213;28;20401;-86
2022/02/02 05:42:36;;;;;;;5.15;0.88;;;;;;;10.97;61.20;101862.97;5041181;28;20049;-85
2022/02/02 05:53:02;;;;;;;0.00;0.00;;;;;;;10.89;61.54;101883.38;5046753;28;20053;-87
2022/02/02 05:55:35;;;;;;;0.10;0.10;;;;;;;11.01;61.42;101877.09;5042578;28;20104;-86
2022/02/02 05:58:02;;;;;;;0.50;0.50;;;;;;;10.95;61.56;101871.81;5049155;28;20057;-86
2022/02/02 06:00:28;;;;;;;0.05;0.05;;;;;;;10.95;61.61;101879.78;5053036;28;20033;-86
2022/02/02 06:02:58;;;;;;;0.10;0.10;;;;;;;10.96;61.65;101877.13;5045605;28;20033;-86
2022/02/02 06:05:27;;;;;;;0.10;0.10;;;;;;;11.01;61.23;101882.41;5044585;28;20112;-85
2022/02/02 06:07:55;;;;;;;1.08;1.08;;;;;;;10.80;62.19;101889.59;5047029;28;20052;-85
2022/02/02 06:10:23;;;;;;;34.40;1.35;;;;;;;10.94;61.73;101884.22;5045958;28;20464;-85
2022/02/02 06:12:54;;;;;;;3.42;2.83;;;;;;;10.91;62.01;101886.88;5048025;28;20034;-84
2022/02/02 06:15:21;;;;;;;0.10;0.10;;;;;;;10.87;61.74;101903.69;5029409;28;20516;-85
2022/02/02 06:17:51;;;;;;;0.10;0.10;;;;;;;10.81;62.42;101903.72;5044916;28;20026;-84
2022/02/02 06:20:19;;;;;;;0.10;0.10;;;;;;;10.78;62.16;101898.41;5035794;28;20032;-84
2022/02/02 06:23:13;;;;;;;1.48;1.38;;;;;;;10.92;61.95;101893.06;5039096;28;20087;-84
2022/02/02 06:25:46;;;;;;;2.53;2.33;;;;;;;10.90;62.50;101908.09;5033529;28;20029;-85
2022/02/02 06:28:13;;;;;;;;;;;;;;;11.10;61.41;101908.00;5027586;28;20034;-88
2022/02/02 06:30:43;;;;;;;0.00;0.00;;;;;;;10.87;62.20;101905.47;5034270;28;19921;-86
2022/02/02 06:33:11;;;;;;;1.85;1.75;;;;;;;10.82;62.27;101903.69;5033577;28;20116;-85
2022/02/02 06:35:38;;;;;;;0.43;0.43;;;;;;;10.80;61.96;101900.19;5034876;28;20025;-85
2022/02/02 06:38:05;;;;;;;0.03;0.03;;;;;;;10.82;61.88;101902.81;5046993;28;20036;-87
2022/02/02 06:40:33;;;;;;;0.20;0.20;;;;;;;10.72;62.21;101917.88;5038639;28;20045;-87
2022/02/02 06:43:00;;;;;;;0.10;0.10;;;;;;;10.62;62.59;101926.75;5046404;28;20036;-85
2022/02/02 06:45:26;;;;;;;0.10;0.10;;;;;;;10.59;62.82;101932.94;5027782;28;20044;-89
2022/02/02 06:47:53;;;;;;;0.10;0.10;;;;;;;10.65;62.53;101940.88;5031224;28;20037;-86
2022/02/02 06:50:26;;;;;;;0.85;0.85;;;;;;;10.64;62.79;101939.13;5033597;28;20075;-86
2022/02/02 06:53:13;;;;;;;0.20;0.20;;;;;;;10.67;62.82;101931.13;5037596;28;20464;-87
2022/02/02 06:56:01;;;;;;;0.20;0.20;;;;;;;10.63;62.71;101929.41;5030383;28;20030;-86
2022/02/02 06:58:50;;;;;;;0.50;0.50;;;;;;;10.57;63.14;101926.75;5038806;28;20029;-86
2022/02/02 07:04:18;;;;;;;2.53;1.75;;;;;;;10.52;63.38;101934.72;5037812;28;20400;-88
2022/02/02 07:06:58;;;;;;;0.10;0.10;;;;;;;10.56;63.70;101948.84;5030927;28;20538;-85
2022/02/02 07:09:49;;;;;;;0.08;0.08;;;;;;;10.59;63.33;101948.84;5032961;28;20104;-84
2022/02/02 07:12:30;;;;;;;0.05;0.05;;;;;;;10.61;63.63;101972.69;5040993;28;20128;-84
2022/02/02 07:17:52;;;;;;;0.30;0.30;;;;;;;10.57;63.72;101976.25;5041373;28;20128;-86
2022/02/02 07:20:30;;;;;;;1.27;0.60;;;;;;;10.63;63.42;101985.06;5040061;28;20644;-86
2022/02/02 07:26:32;;;;;;;0.13;0.13;;;;;;;10.63;63.74;101953.25;5101350;27;20400;-86
2022/02/02 07:28:57;;;;;;;0.10;0.10;;;;;;;10.71;63.45;101968.25;5081171;28;20681;-86
2022/02/02 07:31:44;;;;;;;0.13;0.13;;;;;;;10.70;63.56;101977.97;5067032;28;20391;-86
2022/02/02 07:34:33;;;;;;;0.10;0.10;;;;;;;10.68;63.85;101993.88;5069303;28;20475;-86
2022/02/02 07:37:06;;;;;;;0.10;0.10;;;;;;;10.59;64.00;101991.25;5068708;28;20033;-86
2022/02/02 07:39:34;;;;;;;0.75;0.75;;;;;;;10.62;64.16;101996.53;5063331;28;20041;-84
2022/02/02 07:42:04;;;;;;;11.07;1.23;;;;;;;10.55;64.18;101994.78;5064141;28;20035;-86
2022/02/02 07:44:36;;;;;;;0.10;0.10;;;;;;;10.55;64.13;101999.19;5068013;28;20399;-84
2022/02/02 07:47:12;;;;;;;2.58;1.00;;;;;;;10.49;64.65;102000.06;5061006;28;20033;-83
2022/02/02 07:57:48;;;;;;;1.95;1.88;;;;;;;10.58;64.05;102002.72;5109327;22;20088;-86
2022/02/02 08:00:19;;;;;;;0.98;0.80;;;;;;;10.50;64.39;102012.44;5067371;28;20025;-85
2022/02/02 08:03:17;;;;;;;0.13;0.13;;;;;;;10.49;64.52;102010.69;5064905;28;20013;-86
2022/02/02 08:05:36;;;;;;;0.00;0.00;;;;;;;10.56;64.44;102008.91;5065885;28;20457;-86
2022/02/02 08:11:06;;;;;;;0.30;0.30;;;;;;;10.63;64.35;102024.81;5105737;27;20428;-87
2022/02/02 08:13:38;;;;;;;1.25;1.20;;;;;;;10.68;64.50;102023.03;5084195;28;20107;-87
2022/02/02 08:16:11;;;;;;;0.30;0.30;;;;;;;10.75;64.10;102023.88;5076474;28;20488;-87
2022/02/02 08:18:40;;;;;;;1.77;1.67;;;;;;;10.82;63.90;102030.09;5076870;28;20037;-86
2022/02/02 08:21:06;;;;;;;0.10;0.10;;;;;;;10.91;63.90;102037.13;5074162;28;20029;-87
2022/02/02 08:23:34;;;;;;;0.10;0.10;;;;;;;10.92;63.64;102026.50;5072125;28;20475;-86
2022/02/02 08:26:03;;;;;;;0.10;0.10;;;;;;;10.79;64.25;102035.38;5077635;28;20036;-89
2022/02/02 08:28:29;;;;;;;0.10;0.10;;;;;;;10.94;64.32;102035.34;5076772;28;20032;-87
2022/02/02 08:30:56;;;;;;;4.38;0.85;;;;;;;11.07;63.65;102030.03;5071468;28;20021;-89
2022/02/02 08:33:28;;;;;;;0.03;0.03;;;;;;;11.11;63.58;102042.38;5068548;28;20036;-89
2022/02/02 08:35:56;;;;;;;0.10;0.10;;;;;;;11.17;63.82;102047.66;5068396;28;20021;-89
2022/02/02 08:41:11;;;;;;;0.65;0.65;;;;;;;11.22;63.91;102045.88;5057156;27;20428;-88
2022/02/02 08:46:32;;;;;;;0.20;0.20;;;;;;;11.24;63.33;102038.81;5066929;28;20482;-92
2022/02/02 08:49:16;;;;;;;0.10;0.10;;;;;;;11.31;63.28;102044.97;5059236;28;20116;-88
2022/02/02 08:51:45;;;;;;;0.10;0.10;;;;;;;11.28;63.49;102048.50;5053257;28;20090;-86
2022/02/02 08:57:24;;;;;;;0.22;0.22;;;;;;;11.55;63.16;102049.31;5090683;27;20420;-86
2022/02/02 08:59:51;;;;;;;0.10;0.10;;;;;;;11.70;62.43;102040.38;5074801;28;20191;-84
2022/02/02 09:02:22;;;;;;;0.10;0.10;;;;;;;11.74;63.23;102054.50;5088606;28;20036;-82
2022/02/02 09:05:25;;;;;;;2.05;0.32;;;;;;;11.62;62.91;102064.28;5074464;28;20482;-88
2022/02/02 09:07:37;;;;;;;0.10;0.10;;;;;;;11.70;62.90;102074.00;5073624;28;20162;-90
2022/02/02 09:10:10;;;;;;;0.10;0.10;;;;;;;11.72;63.46;102078.41;5086218;28;20055;-88
2022/02/02 09:23:57;;;;;;;0.10;0.10;;;;;;;11.81;63.31;102081.03;5052393;28;20434;-85
2022/02/02 09:34:39;;;;;;;0.10;0.10;;;;;;;11.81;63.77;102088.09;5076440;27;20402;-85
2022/02/02 09:37:05;;;;;;;0.10;0.10;;;;;;;11.76;63.76;102093.44;5048925;28;20029;-87
2022/02/02 09:39:39;;;;;;;0.10;0.10;;;;;;;11.81;63.79;102093.41;5050425;28;20182;-87
2022/02/02 09:42:12;;;;;;;0.10;0.10;;;;;;;11.73;63.54;102088.13;5049793;28;20021;-86
2022/02/02 09:44:42;;;;;;;0.10;0.10;;;;;;;11.80;63.55;102096.94;5047943;28;20040;-87
2022/02/02 09:47:20;;;;;;;0.10;0.10;;;;;;;11.86;63.84;102104.88;5045199;28;20045;-90
2022/02/02 09:49:59;;;;;;;1.60;1.50;;;;;;;11.94;63.19;102105.72;5047106;28;20029;-87
2022/02/02 09:52:33;;;;;;;0.43;0.43;;;;;;;12.09;62.88;102106.59;5046969;28;20116;-83
2022/02/02 09:55:04;;;;;;;0.10;0.10;;;;;;;11.91;63.56;102113.72;5044383;28;20426;-87
2022/02/02 09:57:53;;;;;;;0.73;0.73;;;;;;;12.01;63.41;102111.03;5047926;28;20048;-86
2022/02/02 10:00:33;;;;;;;0.47;0.47;;;;;;;12.03;63.28;102109.28;5043197;28;20045;-89
2022/02/02 10:03:10;;;;;;;0.10;0.10;;;;;;;12.16;62.89;102116.25;5047253;28;20132;-85
2022/02/02 10:05:54;;;;;;;0.35;0.28;;;;;;;12.18;62.91;102133.09;5046394;28;20029;-88
2022/02/02 10:14:31;;;;;;;0.10;0.10;;;;;;;12.41;62.49;102156.88;5050103;28;20405;-87
2022/02/02 10:16:57;;;;;;;0.30;0.30;;;;;;;12.36;62.32;102149.78;5027221;28;20026;-88
2022/02/02 10:19:28;;;;;;;0.10;0.10;;;;;;;12.41;62.16;102150.66;5025646;28;20038;-86
2022/02/02 10:21:56;;;;;;;0.55;0.55;;;;;;;12.41;62.21;102153.31;5025956;28;20409;-86
2022/02/02 10:24:43;;;;;;;34.13;1.23;;;;;;;12.45;61.75;102161.25;5026373;28;20055;-90
2022/02/02 10:27:22;;;;;;;0.10;0.10;;;;;;;12.56;62.15;102168.25;5026739;28;20558;-89
2022/02/02 10:29:50;;;;;;;0.10;0.10;;;;;;;12.35;62.07;102169.28;5026870;28;20034;-90
2022/02/02 10:32:38;;;;;;;0.10;0.10;;;;;;;12.43;61.63;102178.13;5027742;28;20084;-88
2022/02/02 10:35:07;;;;;;;0.00;0.00;;;;;;;12.41;61.75;102178.13;5027343;28;20147;-87
2022/02/02 10:37:34;;;;;;;0.10;0.10;;;;;;;12.45;62.10;102176.34;5027364;28;20072;-85
2022/02/02 10:40:03;;;;;;;0.10;0.10;;;;;;;12.50;62.04;102173.63;5027297;28;20025;-87
2022/02/02 10:42:40;;;;;;;0.10;0.10;;;;;;;12.51;61.81;102186.94;5022455;28;20026;-85
2022/02/02 10:48:17;;;;;;;0.10;0.10;;;;;;;12.61;61.85;102188.63;5070182;27;20491;-84
2022/02/02 10:50:58;;;;;;;0.10;0.10;;;;;;;12.62;61.60;102179.75;5052874;28;20033;-85
2022/02/02 10:53:36;;;;;;;0.00;0.00;;;;;;;12.69;61.33;102177.06;5054527;28;20025;-85
2022/02/02 10:56:27;;;;;;;0.03;0.03;;;;;;;12.71;60.71;102169.94;5046912;28;20115;-90
2022/02/02 10:59:16;;;;;;;0.10;0.10;;;;;;;12.79;60.72;102170.75;5031334;28;20040;-85
2022/02/02 11:06:36;;;;;;;0.10;0.10;;;;;;;12.68;61.45;102177.94;5043384;28;20041;-85
2022/02/02 11:07:16;;;;;;;0.10;0.10;;;;;;;12.90;60.45;102190.19;5030268;28;20514;-86
2022/02/02 11:09:46;;;;;;;0.08;0.08;;;;;;;13.03;60.16;102195.41;5038063;28;20464;-86
2022/02/02 11:12:14;;;;;;;0.00;0.00;;;;;;;13.10;59.89;102197.97;5042232;28;20108;-87
2022/02/02 11:20:22;;;;;;;0.10;0.10;;;;;;;13.39;58.89;102188.88;5061851;27;20443;-90
2022/02/02 11:25:34;;;;;;;0.00;0.00;;;;;;;13.57;58.49;102187.81;5038859;28;20442;-89
2022/02/02 11:28:05;;;;;;;0.10;0.10;;;;;;;13.57;58.30;102177.16;5021206;28;20034;-84
2022/02/02 11:35:57;;;;;;;0.10;0.10;;;;;;;13.57;57.99;102176.25;5033265;27;20473;-87
2022/02/02 11:49:42;;;;;;;0.10;0.10;;;;;;;13.44;57.46;102178.19;5075292;27;20913;-85
2022/02/02 11:58:12;;;;;;;0.10;0.10;;;;;;;13.39;57.59;102186.19;5053181;28;20412;-86
2022/02/02 12:01:28;;;;;;;12.57;2.63;;;;;;;13.47;58.01;102191.47;5054346;28;20035;-87
2022/02/02 12:06:40;;;;;;;0.10;0.10;;;;;;;13.46;58.28;102178.16;5028029;27;1252738;-86
2022/02/02 12:09:19;;;;;;;1.45;1.33;;;;;;;13.43;58.39;102181.72;5066661;28;20399;-86
2022/02/02 12:49:04;;;;;;;0.30;0.30;;;;;;;13.82;56.77;102144.91;5050287;28;20498;-89
2022/02/02 12:55:49;;;;;;;0.03;0.03;;;;;;;13.88;56.13;102141.25;5033863;28;20409;-89
2022/02/02 12:57:07;;;;;;;0.10;0.10;;;;;;;13.85;56.03;102139.53;5025564;28;20077;-90
2022/02/02 13:02:27;;;;;;;0.10;0.10;;;;;;;13.76;56.61;102139.66;5129285;27;20421;-89
2022/02/02 13:04:59;;;;;;;0.05;0.05;;;;;;;13.74;56.83;102141.44;5102716;28;20028;-90
2022/02/02 13:07:27;;;;;;;0.20;0.20;;;;;;;13.69;56.55;102143.28;5106280;28;20027;-88
2022/02/02 13:09:54;;;;;;;0.00;0.00;;;;;;;13.67;55.87;102145.06;5104894;28;20035;-89
2022/02/02 13:15:22;;;;;;;0.10;0.10;;;;;;;13.59;56.12;102143.41;5046753;28;20427;-90
2022/02/02 13:26:22;;;;;;;0.20;0.20;;;;;;;13.90;56.25;102148.34;5066751;27;20427;-89
2022/02/02 13:37:39;;;;;;;0.10;0.10;;;;;;;13.87;55.47;102147.53;5040085;28;20423;-91
2022/02/02 13:59:56;;;;;;;0.15;0.15;;;;;;;14.43;54.33;102163.63;5131024;27;20472;-87
2022/02/02 14:03:52;;;;;;;0.10;0.10;;;;;;;14.47;54.42;102159.13;5105067;28;20039;-85
2022/02/02 14:05:40;;;;;;;0.10;0.10;;;;;;;14.41;54.56;102157.41;5105195;28;20031;-85
2022/02/02 14:08:03;;;;;;;0.10;0.10;;;;;;;14.35;54.80;102157.50;5104492;28;20064;-86
2022/02/02 14:11:04;;;;;;;0.10;0.10;;;;;;;14.38;55.15;102166.34;5109094;28;20042;-87
2022/02/02 14:32:37;;;;;;;0.10;0.10;;;;;;;14.11;55.66;102188.94;5104864;28;20032;-84
2022/02/02 14:35:05;;;;;;;0.10;0.10;;;;;;;14.07;56.09;102179.22;5107113;28;20102;-84
2022/02/02 14:37:40;;;;;;;0.10;0.10;;;;;;;14.02;56.11;102173.09;5095025;28;20031;-83
2022/02/02 14:40:17;;;;;;;0.00;0.00;;;;;;;13.89;56.03;102189.22;5108075;28;20031;-84
2022/02/02 14:42:46;;;;;;;0.05;0.05;;;;;;;13.91;56.25;102182.06;5101617;28;20088;-85
2022/02/02 14:45:16;;;;;;;0.10;0.10;;;;;;;13.85;56.35;102186.59;5105713;28;20121;-84
2022/02/02 14:47:47;;;;;;;0.00;0.00;;;;;;;13.79;56.50;102198.19;5103739;28;20045;-85
2022/02/02 14:50:24;;;;;;;0.00;0.00;;;;;;;13.78;56.47;102192.91;5107573;28;20035;-84
2022/02/02 14:53:05;;;;;;;0.10;0.10;;;;;;;13.70;56.67;102201.84;5108138;28;20685;-82
2022/02/02 15:27:16;;;;;;;0.10;0.10;;;;;;;13.19;60.04;102181.06;5078093;22;20506;-88
2022/02/02 15:29:30;;;;;;;0.40;0.40;;;;;;;13.06;60.45;102184.72;5029771;28;20068;-87
2022/02/02 15:31:58;;;;;;;0.10;0.10;;;;;;;13.01;59.61;102189.19;5047439;28;20025;-87
2022/02/02 15:34:34;;;;;;;0.10;0.10;;;;;;;12.88;60.46;102191.09;5046845;28;20100;-87
2022/02/02 15:37:37;;;;;;;0.10;0.10;;;;;;;12.82;60.43;102197.31;5045029;28;20041;-88
2022/02/02 15:39:58;;;;;;;0.10;0.10;;;;;;;12.73;60.65;102192.97;5043703;28;20034;-86
2022/02/02 15:42:50;;;;;;;0.88;0.88;;;;;;;12.68;60.19;102188.59;5039957;28;20038;-87
2022/02/02 15:59:23;;;;;;;0.00;0.00;;;;;;;12.40;61.72;102200.28;5039787;28;20045;-84
2022/02/02 16:02:32;;;;;;;0.10;0.10;;;;;;;12.42;62.38;102195.84;5042271;28;20075;-85
2022/02/02 16:04:37;;;;;;;0.10;0.10;;;;;;;12.47;61.99;102201.13;5045762;28;20412;-85
2022/02/02 16:07:07;;;;;;;0.88;0.88;;;;;;;12.49;61.17;102194.03;5043598;28;20051;-85
2022/02/02 16:09:43;;;;;;;0.73;0.73;;;;;;;12.52;61.14;102201.09;5040602;28;20526;-85
2022/02/02 16:12:17;;;;;;;0.93;0.90;;;;;;;12.45;61.64;102201.13;5044696;28;20052;-84
2022/02/02 16:14:52;;;;;;;0.10;0.10;;;;;;;12.45;61.35;102194.94;5043103;28;20083;-85
2022/02/02 16:17:43;;;;;;;1.45;1.35;;;;;;;12.29;61.78;102194.16;5043171;28;20127;-86
2022/02/02 16:32:13;;;;;;;0.10;0.10;;;;;;;12.11;61.64;102197.75;5052395;28;20041;-84
2022/02/02 16:34:43;;;;;;;0.00;0.00;;;;;;;12.10;61.70;102190.69;5065759;28;20049;-87
2022/02/02 16:37:05;;;;;;;0.10;0.10;;;;;;;12.11;61.20;102193.34;5060565;28;20034;-85
2022/02/02 16:39:34;;;;;;;0.10;0.10;;;;;;;12.08;61.32;102197.78;5048603;28;20037;-86
2022/02/02 16:44:46;;;;;;;0.10;0.10;;;;;;;12.01;61.12;102186.28;5066470;28;20035;-87
2022/02/02 16:47:13;;;;;;;1.13;1.02;;;;;;;11.98;61.29;102192.50;5052421;28;20683;-85
2022/02/02 16:49:39;;;;;;;0.10;0.10;;;;;;;11.95;61.59;102196.91;5051504;28;20115;-87
2022/02/02 16:52:06;;;;;;;0.00;0.00;;;;;;;11.86;62.36;102195.16;5051097;28;20025;-86
2022/02/02 16:54:37;;;;;;;0.10;0.10;;;;;;;11.85;62.72;102205.81;5048291;28;20029;-85
2022/02/02 16:57:19;;;;;;;0.10;0.10;;;;;;;11.88;62.27;102212.00;5049011;28;20036;-85
2022/02/02 17:33:03;;;;;;;0.85;0.85;;;;;;;12.05;61.60;102200.44;5065913;28;20414;-86
2022/02/02 17:41:11;;;;;;;0.10;0.10;;;;;;;11.92;63.27;102200.47;5079129;27;20922;-86
2022/02/02 17:44:06;;;;;;;0.93;0.93;;;;;;;11.87;64.58;102210.22;5087942;28;20130;-87
2022/02/02 18:12:42;;;;;;;0.13;0.13;;;;;;;12.04;64.21;102218.16;5049297;28;20040;-88
2022/02/02 18:20:42;;;;;;;0.10;0.10;;;;;;;12.00;66.50;102211.13;5089607;27;20421;-86
2022/02/02 18:31:45;;;;;;;0.10;0.10;;;;;;;12.02;65.11;102197.81;5083030;27;20427;-76
2022/02/02 18:34:23;;;;;;;0.10;0.10;;;;;;;12.02;66.41;102195.16;5068983;28;20051;-76
2022/02/02 18:40:37;;;;;;;0.10;0.10;;;;;;;11.97;66.78;102196.06;5109999;27;20878;-77
2022/02/02 18:45:13;;;;;;;0.10;0.10;;;;;;;12.07;65.30;102198.69;5089625;28;20233;-77
2022/02/02 18:47:50;;;;;;;0.10;0.10;;;;;;;12.05;66.20;102203.09;5089384;28;20455;-77
2022/02/02 18:50:28;;;;;;;0.30;0.30;;;;;;;12.08;65.84;102203.09;5089630;28;20035;-76
2022/02/02 18:59:03;;;;;;;0.43;0.38;;;;;;;12.11;65.77;102203.06;5068716;28;20775;-76
2022/02/02 19:04:08;;;;;;;1.08;1.08;;;;;;;12.11;65.96;102208.38;5069553;28;20398;-76
2022/02/02 19:07:04;;;;;;;0.10;0.10;;;;;;;12.14;65.29;102198.63;5069479;28;20059;-76
2022/02/02 19:15:12;;;;;;;0.32;0.32;;;;;;;12.09;65.62;102181.84;5054148;28;20038;-76
2022/02/02 19:37:12;;;;;;;0.93;0.93;;;;;;;12.11;66.02;102198.66;5048954;28;20048;-76
2022/02/02 19:38:12;;;;;;;0.25;0.25;;;;;;;12.05;65.86;102193.38;5048585;28;20057;-76
2022/02/02 19:40:13;;;;;;;0.10;0.10;;;;;;;12.00;66.84;102194.28;5056051;28;20539;-77
2022/02/02 19:52:26;;;;;;;1.45;1.35;;;;;;;11.97;66.96;102190.75;5059939;28;20687;-76
2022/02/02 19:56:53;;;;;;;1.45;1.20;;;;;;;11.85;67.37;102174.84;5066222;28;20043;-77
2022/02/02 20:05:17;;;;;;;0.75;0.75;;;;;;;11.86;67.10;102179.25;5106445;27;20399;-76
2022/02/02 20:07:52;;;;;;;0.40;0.40;;;;;;;11.86;67.44;102176.56;5077930;28;20119;-77
2022/02/02 20:13:04;;;;;;;0.15;0.15;;;;;;;11.87;67.81;102188.97;5105865;27;20408;-76
2022/02/02 20:15:35;;;;;;;1.48;1.38;;;;;;;11.83;67.86;102179.25;5103459;28;20024;-76
2022/02/02 20:18:03;;;;;;;0.98;0.65;;;;;;;11.79;68.77;102180.19;5097205;28;20126;-76
2022/02/02 20:20:33;;;;;;;1.85;0.63;;;;;;;11.84;68.02;102185.44;5081673;28;20034;-77
2022/02/02 20:23:02;;;;;;;0.17;0.17;;;;;;;11.86;67.35;102175.72;5089473;28;20028;-77
2022/02/02 20:25:28;;;;;;;0.35;0.35;;;;;;;11.81;67.87;102186.34;5085197;28;20593;-76
2022/02/02 20:28:05;;;;;;;0.10;0.10;;;;;;;11.85;67.84;102189.88;5086385;28;20038;-76
2022/02/02 20:30:32;;;;;;;0.10;0.10;;;;;;;11.83;68.78;102187.22;5089737;28;20024;-77
2022/02/02 20:32:58;;;;;;;0.10;0.10;;;;;;;11.76;68.89;102182.81;5088684;28;20024;-77
2022/02/02 20:35:24;;;;;;;0.00;0.00;;;;;;;11.80;69.18;102173.94;5088993;28;20086;-76
2022/02/02 20:37:50;;;;;;;0.00;0.00;;;;;;;11.86;69.03;102181.03;5088183;28;20032;-77
2022/02/02 20:40:17;;;;;;;0.28;0.28;;;;;;;11.84;68.45;102167.75;5086681;28;20033;-75
2022/02/02 20:42:55;;;;;;;0.32;0.32;;;;;;;11.83;68.22;102181.91;5090293;28;20031;-77
2022/02/02 21:03:04;;;;;;;0.10;0.10;;;;;;;11.80;68.88;102188.13;5013044;28;20049;-76
2022/02/02 21:10:15;;;;;;;0.10;0.10;;;;;;;11.71;68.72;102184.63;5079276;28;20395;-77
2022/02/02 21:15:31;;;;;;;2.75;0.85;;;;;;;11.74;68.73;102171.31;5060673;28;20132;-77
2022/02/02 21:18:06;;;;;;;0.82;0.45;;;;;;;11.66;68.85;102174.00;5066180;28;20529;-77
2022/02/02 21:20:40;;;;;;;0.22;0.22;;;;;;;11.68;68.72;102181.97;5066768;28;20040;-76
2022/02/02 21:23:14;;;;;;;2.72;0.63;;;;;;;11.62;69.20;102177.56;5067519;28;20044;-77
2022/02/02 21:25:45;;;;;;;0.10;0.10;;;;;;;11.70;69.10;102174.88;5056205;28;20025;-76
2022/02/02 21:28:12;;;;;;;1.17;0.65;;;;;;;11.73;68.42;102180.19;5060117;28;20037;-76
2022/02/02 21:30:42;;;;;;;0.10;0.10;;;;;;;11.64;69.01;102181.97;5060168;28;20054;-76
2022/02/02 21:33:13;;;;;;;0.65;0.65;;;;;;;11.69;68.74;102179.31;5051961;28;20292;-76
2022/02/02 21:35:40;;;;;;;0.10;0.10;;;;;;;11.55;68.81;102182.03;5045018;28;20067;-76
2022/02/02 21:38:15;;;;;;;3.00;0.60;;;;;;;11.63;68.65;102177.56;5051314;28;20025;-77
2022/02/02 21:40:46;;;;;;;0.10;0.10;;;;;;;11.60;69.24;102184.63;5055363;28;21440;-76
2022/02/02 21:43:12;;;;;;;0.15;0.15;;;;;;;11.62;69.10;102180.22;5052068;28;20025;-74
2022/02/02 21:45:38;;;;;;;0.08;0.08;;;;;;;11.57;68.84;102172.25;5062336;28;20108;-75
2022/02/02 21:48:05;;;;;;;0.30;0.30;;;;;;;11.57;68.87;102174.91;5064671;28;20071;-75
2022/02/02 21:50:43;;;;;;;0.00;0.00;;;;;;;11.61;68.53;102182.00;5053559;28;20021;-76
2022/02/02 21:53:10;;;;;;;0.08;0.08;;;;;;;11.55;68.96;102181.13;5056632;28;20055;-76